Time;durP1;ratioP1;P1;durP2;ratioP2;P2;SDS_P1;SDS_P2;PMS_P1;PMS_P2;Temp;Humidity;BMP_temperature;BMP_pressure;BME280_temperature;BME280_humidity;BME280_pressure;Samples;Min_cycle;Max_cycle;Signal;HPM_P1;HPM_P2
2023/02/12 00:02:14;;;;;;;31.30;25.80;;;7.80;99.90;;;;;;5034425;28;20189;-68
2023/02/12 00:04:39;;;;;;;31.50;24.60;;;7.80;99.90;;;;;;5034277;28;20407;-69
2023/02/12 00:07:05;;;;;;;31.93;26.20;;;7.90;99.90;;;;;;5033434;28;20199;-69
2023/02/12 00:09:30;;;;;;;33.93;26.00;;;7.80;99.90;;;;;;5033474;28;20172;-68
2023/02/12 00:11:56;;;;;;;31.93;25.70;;;7.70;99.90;;;;;;5033624;28;20203;-69
2023/02/12 00:14:21;;;;;;;28.60;24.90;;;7.80;99.90;;;;;;5033874;28;20253;-69
2023/02/12 00:16:47;;;;;;;31.00;25.47;;;7.80;99.90;;;;;;5033360;28;20172;-69
2023/02/12 00:19:13;;;;;;;32.47;26.07;;;7.70;99.90;;;;;;5031905;28;20189;-69
2023/02/12 00:21:38;;;;;;;32.83;26.87;;;7.90;99.90;;;;;;5033914;28;20583;-69
2023/02/12 00:24:04;;;;;;;33.30;25.70;;;7.90;99.90;;;;;;5034377;28;20174;-69
2023/02/12 00:26:29;;;;;;;33.80;27.37;;;7.90;99.90;;;;;;5033087;28;20661;-69
2023/02/12 00:28:55;;;;;;;33.87;26.90;;;7.80;99.90;;;;;;5033055;28;20189;-69
2023/02/12 00:31:24;;;;;;;31.03;26.00;;;7.80;99.90;;;;;;5033103;28;20168;-69
2023/02/12 00:33:50;;;;;;;35.00;26.87;;;7.80;99.90;;;;;;5032795;28;20168;-69
2023/02/12 00:36:21;;;;;;;33.17;27.70;;;7.90;99.90;;;;;;5033245;28;20495;-68
2023/02/12 00:38:48;;;;;;;31.30;27.10;;;7.90;99.90;;;;;;5033494;28;20635;-69
2023/02/12 00:41:14;;;;;;;29.80;25.40;;;7.90;99.90;;;;;;5033167;28;20414;-70
2023/02/12 00:43:39;;;;;;;31.43;24.97;;;7.90;99.90;;;;;;5033067;28;20495;-68
2023/02/12 00:46:05;;;;;;;30.13;25.50;;;7.80;99.90;;;;;;5031494;28;20459;-69
2023/02/12 00:48:35;;;;;;;33.53;27.50;;;7.90;99.90;;;;;;5032724;28;20185;-68
2023/02/12 00:51:01;;;;;;;33.13;26.33;;;7.90;99.90;;;;;;5032961;28;20403;-68
2023/02/12 00:53:26;;;;;;;33.00;27.43;;;7.90;99.90;;;;;;5032664;28;20409;-69
2023/02/12 00:55:52;;;;;;;30.83;24.47;;;8.00;99.90;;;;;;5032425;28;20183;-69
2023/02/12 00:58:17;;;;;;;32.13;26.83;;;8.00;99.90;;;;;;5031171;28;20268;-69
2023/02/12 01:00:43;;;;;;;34.63;26.70;;;8.00;99.90;;;;;;5033118;28;20170;-69
2023/02/12 01:03:09;;;;;;;32.53;27.93;;;7.90;99.90;;;;;;5032712;28;20183;-69
2023/02/12 01:05:35;;;;;;;33.27;28.27;;;7.80;99.90;;;;;;5031732;28;20192;-69
2023/02/12 01:08:03;;;;;;;31.60;25.67;;;7.90;99.90;;;;;;5031657;28;20192;-69
2023/02/12 01:10:29;;;;;;;33.73;28.47;;;7.90;99.90;;;;;;5032297;28;20482;-69
2023/02/12 01:12:54;;;;;;;32.53;25.60;;;8.00;99.90;;;;;;5032607;28;20826;-68
2023/02/12 01:15:20;;;;;;;37.13;27.73;;;7.90;99.90;;;;;;5032536;28;20177;-68
2023/02/12 01:17:46;;;;;;;29.53;25.63;;;7.90;99.90;;;;;;5032555;28;20234;-68
2023/02/12 01:20:16;;;;;;;35.87;28.67;;;7.70;99.90;;;;;;5032093;28;20166;-68
2023/02/12 01:22:42;;;;;;;29.50;26.30;;;7.80;99.90;;;;;;5032413;28;20175;-70
2023/02/12 01:25:08;;;;;;;33.20;27.60;;;7.80;99.90;;;;;;5030588;28;20469;-68
2023/02/12 01:27:35;;;;;;;34.73;27.27;;;7.70;99.90;;;;;;5030990;28;20458;-68
2023/02/12 01:30:02;;;;;;;31.13;26.17;;;7.70;99.90;;;;;;5032592;28;20188;-68
2023/02/12 01:32:27;;;;;;;29.03;23.90;;;7.90;99.90;;;;;;5032386;28;20428;-68
2023/02/12 01:34:53;;;;;;;33.30;26.70;;;7.90;99.90;;;;;;5032548;28;20500;-68
2023/02/12 01:37:18;;;;;;;29.20;26.00;;;7.90;99.90;;;;;;5036748;28;20210;-69
2023/02/12 01:39:44;;;;;;;31.50;25.90;;;7.70;99.90;;;;;;5035980;28;20172;-69
2023/02/12 01:42:12;;;;;;;28.60;24.77;;;7.80;99.90;;;;;;5036829;28;20195;-69
2023/02/12 01:45:05;;;;;;;37.20;29.13;;;7.80;99.90;;;;;;5036580;28;20172;-69
2023/02/12 01:47:30;;;;;;;35.27;27.10;;;7.70;99.90;;;;;;5034669;28;20538;-68
2023/02/12 01:49:56;;;;;;;31.17;24.37;;;7.80;99.90;;;;;;5036557;28;20410;-68
2023/02/12 01:52:30;;;;;;;30.03;26.47;;;7.90;99.90;;;;;;5034691;28;20542;-68
2023/02/12 01:54:59;;;;;;;34.23;27.77;;;7.80;99.90;;;;;;5035394;28;20175;-68
2023/02/12 01:57:27;;;;;;;32.73;26.67;;;7.80;99.90;;;;;;5035303;28;20468;-69
2023/02/12 01:59:55;;;;;;;36.23;29.40;;;7.70;99.90;;;;;;5036171;28;20411;-69
2023/02/12 02:02:21;;;;;;;32.67;25.53;;;7.70;99.90;;;;;;5035834;28;20411;-69
2023/02/12 02:04:51;;;;;;;36.60;28.60;;;7.80;99.90;;;;;;5036242;28;20418;-68
2023/02/12 02:07:16;;;;;;;36.50;28.53;;;7.80;99.90;;;;;;5035788;28;20481;-69
2023/02/12 02:09:43;;;;;;;34.60;27.70;;;7.90;99.90;;;;;;5035227;28;20913;-68
2023/02/12 02:14:56;;;;;;;36.10;27.20;;;7.80;99.90;;;;;;5038553;28;20445;-68
2023/02/12 02:17:46;;;;;;;30.40;26.47;;;7.90;99.90;;;;;;5035573;28;20789;-69
2023/02/12 02:20:36;;;;;;;33.07;26.90;;;7.80;99.90;;;;;;5035701;28;20437;-68
2023/02/12 02:23:10;;;;;;;31.47;25.17;;;7.70;99.90;;;;;;5035617;28;20874;-68
2023/02/12 02:25:46;;;;;;;33.93;27.10;;;7.90;99.90;;;;;;5034204;28;20533;-68
2023/02/12 02:28:33;;;;;;;34.67;26.43;;;7.90;99.90;;;;;;5036126;28;20421;-68
2023/02/12 02:31:28;;;;;;;32.47;24.80;;;8.00;99.90;;;;;;5034336;28;20457;-68
2023/02/12 02:34:05;;;;;;;29.93;24.17;;;7.80;99.90;;;;;;5026524;28;20419;-69
2023/02/12 02:36:46;;;;;;;28.57;24.80;;;7.80;99.90;;;;;;5035834;28;20481;-69
2023/02/12 02:39:19;;;;;;;29.97;24.43;;;7.80;99.90;;;;;;5034974;28;20473;-69
2023/02/12 02:42:05;;;;;;;31.87;25.93;;;7.80;99.90;;;;;;5035327;28;20494;-68
2023/02/12 02:44:45;;;;;;;32.37;26.10;;;7.80;99.90;;;;;;5027953;28;20852;-69
2023/02/12 02:47:13;;;;;;;33.20;26.67;;;7.80;99.90;;;;;;5035005;28;20519;-68
2023/02/12 02:49:48;;;;;;;31.70;24.90;;;7.70;99.90;;;;;;5035351;28;20482;-68
2023/02/12 02:52:21;;;;;;;32.20;25.43;;;7.70;99.90;;;;;;5035328;28;20920;-68
2023/02/12 02:54:50;;;;;;;31.50;25.57;;;7.80;99.90;;;;;;5034811;28;20399;-69
2023/02/12 02:57:27;;;;;;;31.23;25.93;;;7.80;99.90;;;;;;5034838;28;20558;-69
2023/02/12 02:59:57;;;;;;;33.53;26.70;;;7.90;99.90;;;;;;5035110;28;20399;-68
2023/02/12 03:02:28;;;;;;;31.90;25.37;;;8.00;99.90;;;;;;5035469;28;20393;-69
2023/02/12 03:05:09;;;;;;;33.90;25.37;;;8.00;99.90;;;;;;5034593;28;20769;-69
2023/02/12 03:07:45;;;;;;;30.67;24.97;;;8.00;99.90;;;;;;5015177;28;20547;-69
2023/02/12 03:10:16;;;;;;;31.57;25.67;;;8.10;99.90;;;;;;5014793;28;20731;-69
2023/02/12 03:13:25;;;;;;;30.33;25.90;;;8.10;99.90;;;;;;5014934;28;20480;-69
2023/02/12 03:15:58;;;;;;;33.13;26.67;;;8.10;99.90;;;;;;5013317;28;20428;-69
2023/02/12 03:18:30;;;;;;;35.13;25.93;;;7.90;99.90;;;;;;5014737;28;20528;-69
2023/02/12 03:21:12;;;;;;;35.20;27.87;;;7.90;99.90;;;;;;5014657;28;20428;-69
2023/02/12 03:23:45;;;;;;;34.60;28.67;;;7.90;99.90;;;;;;5014219;28;20423;-73
2023/02/12 03:26:20;;;;;;;31.73;25.97;;;7.80;99.90;;;;;;5014575;28;20435;-69
2023/02/12 03:28:46;;;;;;;33.77;28.27;;;7.70;99.90;;;;;;5014631;28;20422;-69
2023/02/12 03:31:28;;;;;;;34.97;28.50;;;7.70;99.90;;;;;;5014937;28;20435;-69
2023/02/12 03:34:20;;;;;;;33.90;26.90;;;7.80;99.90;;;;;;5015103;28;20398;-69
2023/02/12 03:37:23;;;;;;;31.20;26.40;;;7.80;99.90;;;;;;5013419;28;20427;-69
2023/02/12 03:40:01;;;;;;;29.80;24.93;;;7.70;99.90;;;;;;5014285;28;20403;-69
2023/02/12 03:42:55;;;;;;;35.20;26.50;;;7.80;99.90;;;;;;5013580;28;20499;-70
2023/02/12 03:45:36;;;;;;;34.67;27.13;;;7.80;99.90;;;;;;5014791;28;20492;-70
2023/02/12 03:48:06;;;;;;;29.60;24.97;;;7.60;99.90;;;;;;5012976;28;20432;-69
2023/02/12 03:50:35;;;;;;;32.07;26.63;;;7.60;99.90;;;;;;5013777;28;20423;-69
2023/02/12 03:53:01;;;;;;;37.50;28.23;;;7.70;99.90;;;;;;5014514;28;20785;-69
2023/02/12 03:55:29;;;;;;;35.07;26.80;;;7.60;99.90;;;;;;5028238;28;20412;-68
2023/02/12 03:57:59;;;;;;;40.57;30.30;;;7.70;99.90;;;;;;5033127;28;20590;-69
2023/02/12 04:00:26;;;;;;;35.07;27.63;;;7.70;99.90;;;;;;5034074;28;20439;-68
2023/02/12 04:02:53;;;;;;;32.50;26.20;;;7.80;99.90;;;;;;5033743;28;20419;-69
2023/02/12 04:05:21;;;;;;;34.53;27.37;;;7.90;99.90;;;;;;5033828;28;20488;-69
2023/02/12 04:07:48;;;;;;;34.90;29.20;;;8.00;99.90;;;;;;5033580;28;20445;-69
2023/02/12 04:10:14;;;;;;;36.60;28.47;;;8.00;99.90;;;;;;5033118;28;20424;-69
2023/02/12 04:12:55;;;;;;;32.20;26.07;;;8.00;99.90;;;;;;5035959;28;20459;-69
2023/02/12 04:15:45;;;;;;;32.53;27.60;;;8.00;99.90;;;;;;5032097;28;20437;-68
2023/02/12 04:18:21;;;;;;;34.80;27.83;;;8.00;99.90;;;;;;5033573;28;20844;-68
2023/02/12 04:20:59;;;;;;;32.63;26.30;;;7.90;99.90;;;;;;5033382;28;20388;-68
2023/02/12 04:23:33;;;;;;;30.73;25.63;;;7.90;99.90;;;;;;5033783;28;20401;-69
2023/02/12 04:26:27;;;;;;;33.70;27.10;;;7.90;99.90;;;;;;5032195;28;20564;-69
2023/02/12 04:29:16;;;;;;;33.10;26.57;;;7.90;99.90;;;;;;5033575;28;20420;-69
2023/02/12 04:31:51;;;;;;;32.37;25.77;;;7.80;99.90;;;;;;5033986;28;20383;-69
2023/02/12 04:34:23;;;;;;;33.77;26.77;;;7.90;99.90;;;;;;5033400;28;20398;-68
2023/02/12 04:36:55;;;;;;;32.00;27.17;;;7.70;99.90;;;;;;5033370;28;20394;-68
2023/02/12 04:39:26;;;;;;;28.70;25.70;;;7.60;99.90;;;;;;5032650;28;20412;-68
2023/02/12 04:41:51;;;;;;;37.23;27.27;;;7.70;99.90;;;;;;5031343;28;20408;-69
2023/02/12 04:44:22;;;;;;;33.70;26.37;;;7.90;99.90;;;;;;5033213;28;20428;-68
2023/02/12 04:46:49;;;;;;;32.97;25.97;;;7.90;99.90;;;;;;5033068;28;20282;-68
2023/02/12 04:49:16;;;;;;;33.87;28.10;;;7.90;99.90;;;;;;5033245;28;20409;-68
2023/02/12 04:51:42;;;;;;;30.40;24.00;;;7.90;99.90;;;;;;5033000;28;20773;-68
2023/02/12 04:54:08;;;;;;;31.40;25.50;;;7.90;99.90;;;;;;5032417;28;20461;-68
2023/02/12 04:56:34;;;;;;;29.83;23.33;;;8.00;99.90;;;;;;5032636;28;20425;-68
2023/02/12 04:58:59;;;;;;;29.77;25.17;;;8.00;99.90;;;;;;5032417;28;20515;-68
2023/02/12 05:01:25;;;;;;;28.53;25.43;;;8.10;99.90;;;;;;5032856;28;20181;-68
2023/02/12 05:03:51;;;;;;;33.77;26.20;;;8.20;99.90;;;;;;5031137;28;20178;-69
2023/02/12 05:06:17;;;;;;;30.30;26.43;;;8.10;99.90;;;;;;5032177;28;20245;-68
2023/02/12 05:08:42;;;;;;;34.30;28.27;;;8.10;99.90;;;;;;5031980;28;20524;-68
2023/02/12 05:11:10;;;;;;;33.73;27.30;;;8.00;99.90;;;;;;5031547;28;20213;-71
2023/02/12 05:13:36;;;;;;;28.60;24.83;;;7.90;99.90;;;;;;5032597;28;20174;-72
2023/02/12 05:16:06;;;;;;;34.13;27.90;;;7.80;99.90;;;;;;5032308;28;20449;-71
2023/02/12 05:18:33;;;;;;;34.47;27.30;;;7.60;99.90;;;;;;5032353;28;20533;-71
2023/02/12 05:21:02;;;;;;;36.40;28.70;;;7.50;99.90;;;;;;5032670;28;20424;-72
2023/02/12 05:23:29;;;;;;;33.57;27.53;;;7.50;99.90;;;;;;5032227;28;20407;-71
2023/02/12 05:25:58;;;;;;;29.43;25.27;;;7.40;99.90;;;;;;5030885;28;20475;-72
2023/02/12 05:28:23;;;;;;;32.73;28.93;;;7.50;99.90;;;;;;5032461;28;20436;-71
2023/02/12 05:30:49;;;;;;;37.27;29.07;;;7.50;99.90;;;;;;5032238;28;20781;-71
2023/02/12 05:33:15;;;;;;;35.13;28.20;;;7.60;99.90;;;;;;5032299;28;20681;-70
2023/02/12 05:35:40;;;;;;;37.93;29.97;;;7.50;99.90;;;;;;5032636;28;20179;-71
2023/02/12 05:38:06;;;;;;;36.90;29.60;;;7.40;99.90;;;;;;5032129;28;20561;-71
2023/02/12 05:40:31;;;;;;;37.17;31.60;;;7.40;99.90;;;;;;5031874;28;20213;-71
2023/02/12 05:42:57;;;;;;;36.30;28.97;;;7.50;99.90;;;;;;5032143;28;20173;-72
2023/02/12 05:45:26;;;;;;;34.87;26.90;;;7.50;99.90;;;;;;5030691;28;20176;-72
2023/02/12 05:47:55;;;;;;;33.20;29.47;;;7.50;99.90;;;;;;5032222;28;20188;-72
2023/02/12 05:50:21;;;;;;;32.47;28.27;;;7.50;99.90;;;;;;5032293;28;20502;-72
2023/02/12 05:52:47;;;;;;;35.03;29.97;;;7.60;99.90;;;;;;5032537;28;20494;-72
2023/02/12 05:55:12;;;;;;;32.17;27.70;;;7.60;99.90;;;;;;5031445;28;20585;-72
2023/02/12 05:57:38;;;;;;;30.47;26.90;;;7.60;99.90;;;;;;5032363;28;20306;-71
2023/02/12 06:00:07;;;;;;;30.50;26.33;;;7.60;99.90;;;;;;5032529;28;20243;-71
2023/02/12 06:02:34;;;;;;;31.63;28.33;;;7.40;99.90;;;;;;5032060;28;20176;-71
2023/02/12 06:04:59;;;;;;;33.00;26.97;;;7.50;99.90;;;;;;5031771;28;20420;-71
2023/02/12 06:07:25;;;;;;;32.30;27.53;;;7.60;99.90;;;;;;5032132;28;20970;-71
2023/02/12 06:09:51;;;;;;;38.87;29.53;;;7.70;99.90;;;;;;5031452;28;20172;-72
2023/02/12 06:12:16;;;;;;;34.63;29.73;;;7.60;99.90;;;;;;5031960;28;20174;-71
2023/02/12 06:14:42;;;;;;;29.37;26.10;;;7.50;99.90;;;;;;5031790;28;20178;-71
2023/02/12 06:17:08;;;;;;;35.37;26.73;;;7.50;99.90;;;;;;5034046;28;20207;-71
2023/02/12 06:19:33;;;;;;;37.70;30.53;;;7.60;99.90;;;;;;5030954;28;20499;-71
2023/02/12 06:21:59;;;;;;;41.00;32.50;;;7.60;99.90;;;;;;5034253;28;20644;-69
2023/02/12 06:24:24;;;;;;;35.60;31.10;;;7.50;99.90;;;;;;5034643;28;20655;-69
2023/02/12 06:26:51;;;;;;;34.80;28.97;;;7.50;99.90;;;;;;5035395;28;20603;-69
2023/02/12 06:29:17;;;;;;;34.90;29.27;;;7.50;99.90;;;;;;5035926;28;20224;-69
2023/02/12 06:31:43;;;;;;;37.60;31.37;;;7.50;99.90;;;;;;5035438;28;20442;-69
2023/02/12 06:34:11;;;;;;;34.33;29.60;;;7.60;99.90;;;;;;5035483;28;20417;-69
2023/02/12 06:36:38;;;;;;;35.70;29.13;;;7.60;99.90;;;;;;5034936;28;20412;-69
2023/02/12 06:39:04;;;;;;;33.97;28.23;;;7.60;99.90;;;;;;5035429;28;20431;-69
2023/02/12 06:41:30;;;;;;;33.37;29.00;;;7.60;99.90;;;;;;5034981;28;20798;-69
2023/02/12 06:43:55;;;;;;;33.27;28.93;;;7.70;99.90;;;;;;5035441;28;20224;-69
2023/02/12 06:46:21;;;;;;;38.97;31.40;;;7.60;99.90;;;;;;5035057;28;20196;-69
2023/02/12 06:48:47;;;;;;;37.50;31.90;;;7.60;99.90;;;;;;5035388;28;20195;-69
2023/02/12 06:51:15;;;;;;;37.60;30.63;;;7.60;99.90;;;;;;5034907;28;20402;-69
2023/02/12 06:53:41;;;;;;;39.20;30.63;;;7.60;99.90;;;;;;5035598;28;20652;-69
2023/02/12 06:56:10;;;;;;;36.17;29.70;;;7.60;99.90;;;;;;5033184;28;20459;-69
2023/02/12 06:58:37;;;;;;;39.47;30.63;;;7.60;99.90;;;;;;5034769;28;20459;-69
2023/02/12 07:01:12;;;;;;;40.70;30.17;;;7.60;99.90;;;;;;5035120;28;20411;-69
2023/02/12 07:03:39;;;;;;;36.47;30.63;;;7.70;99.90;;;;;;5034966;28;20533;-69
2023/02/12 07:06:05;;;;;;;35.10;29.33;;;7.70;99.90;;;;;;5034750;28;20521;-67
2023/02/12 07:08:31;;;;;;;40.87;31.57;;;7.60;99.90;;;;;;5033749;28;20441;-68
2023/02/12 07:10:56;;;;;;;39.50;31.63;;;7.70;99.90;;;;;;5034062;28;20459;-68
2023/02/12 07:13:22;;;;;;;38.20;30.17;;;7.70;99.90;;;;;;5034563;28;20170;-70
2023/02/12 07:15:47;;;;;;;33.93;27.67;;;7.60;99.90;;;;;;5033955;28;20215;-68
2023/02/12 07:18:13;;;;;;;32.83;28.13;;;7.70;99.90;;;;;;5034399;28;20303;-68
2023/02/12 07:20:38;;;;;;;34.33;30.37;;;7.70;99.90;;;;;;5034455;28;20177;-68
2023/02/12 07:23:04;;;;;;;34.60;28.90;;;7.70;99.90;;;;;;5032836;28;20177;-68
2023/02/12 07:25:30;;;;;;;32.63;29.10;;;7.90;99.90;;;;;;5033967;28;20172;-68
2023/02/12 07:27:55;;;;;;;34.40;30.27;;;7.90;99.90;;;;;;5034298;28;20256;-68
2023/02/12 07:30:21;;;;;;;38.00;31.90;;;7.90;99.90;;;;;;5033278;28;20177;-68
2023/02/12 07:32:46;;;;;;;38.40;32.97;;;7.90;99.90;;;;;;5033517;28;20167;-68
2023/02/12 07:35:12;;;;;;;37.63;31.60;;;7.80;99.90;;;;;;5034476;28;20167;-68
2023/02/12 07:37:37;;;;;;;39.63;34.87;;;7.80;99.90;;;;;;5034344;28;20194;-68
2023/02/12 07:40:03;;;;;;;34.43;30.10;;;7.80;99.90;;;;;;5034778;28;20537;-68
2023/02/12 07:42:29;;;;;;;32.70;29.17;;;7.90;99.90;;;;;;5034269;28;20229;-68
2023/02/12 07:44:55;;;;;;;30.73;26.87;;;7.90;99.90;;;;;;5033579;28;20418;-68
2023/02/12 07:47:20;;;;;;;33.40;27.63;;;7.90;99.90;;;;;;5033916;28;20352;-68
2023/02/12 07:49:46;;;;;;;37.00;29.13;;;7.90;99.90;;;;;;5033777;28;20171;-68
2023/02/12 07:52:11;;;;;;;33.10;29.07;;;8.10;99.90;;;;;;5033788;28;20244;-69
2023/02/12 07:54:37;;;;;;;37.73;29.23;;;8.20;99.90;;;;;;5033783;28;20530;-68
2023/02/12 07:57:02;;;;;;;32.93;29.43;;;8.20;99.90;;;;;;5033520;28;20249;-68
2023/02/12 07:59:28;;;;;;;35.97;31.50;;;8.30;99.90;;;;;;5032505;28;20181;-68
2023/02/12 08:01:55;;;;;;;37.10;31.73;;;8.40;99.90;;;;;;5032359;28;20175;-68
2023/02/12 08:04:23;;;;;;;37.90;31.77;;;8.40;99.90;;;;;;5034772;28;20175;-69
2023/02/12 08:06:51;;;;;;;36.07;31.50;;;8.50;99.90;;;;;;5035474;28;20530;-69
2023/02/12 08:09:19;;;;;;;35.13;30.97;;;8.50;99.90;;;;;;5034723;28;20397;-69
2023/02/12 08:11:45;;;;;;;41.57;33.77;;;8.60;99.90;;;;;;5037503;28;20459;-69
2023/02/12 08:14:13;;;;;;;38.50;31.97;;;8.60;99.90;;;;;;5034911;28;20482;-69
2023/02/12 08:16:41;;;;;;;36.63;31.10;;;8.50;99.90;;;;;;5034971;28;20173;-69
2023/02/12 08:19:06;;;;;;;39.50;33.17;;;8.50;99.90;;;;;;5033308;28;20445;-69
2023/02/12 08:21:32;;;;;;;36.37;30.67;;;8.60;99.90;;;;;;5033416;28;20405;-69
2023/02/12 08:23:58;;;;;;;38.10;32.60;;;8.70;99.90;;;;;;5031990;28;20229;-69
2023/02/12 08:26:27;;;;;;;36.60;32.03;;;8.60;99.90;;;;;;5032830;28;20452;-68
2023/02/12 08:28:56;;;;;;;34.10;30.20;;;8.80;99.90;;;;;;5032421;28;20460;-69
2023/02/12 08:31:24;;;;;;;35.67;30.23;;;9.00;99.90;;;;;;5033080;28;20405;-68
2023/02/12 08:33:51;;;;;;;38.70;32.70;;;9.10;99.90;;;;;;5033468;28;20397;-69
2023/02/12 08:36:19;;;;;;;38.57;31.97;;;9.20;99.90;;;;;;5033447;28;20409;-69
2023/02/12 08:38:45;;;;;;;39.13;34.20;;;9.20;99.90;;;;;;5033148;28;20795;-69
2023/02/12 08:41:17;;;;;;;45.70;37.23;;;9.00;99.90;;;;;;5032932;28;20781;-69
2023/02/12 08:43:43;;;;;;;38.80;32.80;;;8.70;99.90;;;;;;5032564;28;20441;-74
2023/02/12 08:46:10;;;;;;;40.33;35.13;;;8.70;99.90;;;;;;5033143;28;20475;-68
2023/02/12 08:48:36;;;;;;;45.07;36.87;;;8.70;99.90;;;;;;5031556;28;20433;-69
2023/02/12 08:51:17;;;;;;;41.80;35.23;;;8.80;99.90;;;;;;5033050;28;20460;-69
2023/02/12 08:53:45;;;;;;;44.80;36.53;;;8.90;99.90;;;;;;5033112;28;20567;-69
2023/02/12 08:56:13;;;;;;;39.07;34.80;;;9.00;99.90;;;;;;5031793;28;20768;-69
2023/02/12 08:58:39;;;;;;;38.17;33.77;;;9.00;99.90;;;;;;5032178;28;20549;-68
2023/02/12 09:01:09;;;;;;;46.80;35.03;;;8.90;99.90;;;;;;5031971;28;20759;-69
2023/02/12 09:03:35;;;;;;;39.83;33.10;;;8.80;99.90;;;;;;5032665;28;20453;-68
2023/02/12 09:06:05;;;;;;;44.03;35.93;;;9.00;99.90;;;;;;5031007;28;20985;-68
2023/02/12 09:08:31;;;;;;;43.63;34.47;;;9.10;99.90;;;;;;5032450;28;20268;-68
2023/02/12 09:10:57;;;;;;;39.83;31.50;;;9.20;99.90;;;;;;5031120;28;20451;-68
2023/02/12 09:13:23;;;;;;;37.27;31.20;;;9.40;99.90;;;;;;5031507;28;20462;-69
2023/02/12 09:15:48;;;;;;;39.67;30.97;;;9.60;99.90;;;;;;5032282;28;20410;-70
2023/02/12 09:18:15;;;;;;;39.80;32.47;;;9.60;99.90;;;;;;5032317;28;20183;-69
2023/02/12 09:20:43;;;;;;;35.30;30.00;;;9.40;99.90;;;;;;5031669;28;20208;-69
2023/02/12 09:23:11;;;;;;;38.23;30.13;;;9.60;99.90;;;;;;5032508;28;20429;-69
2023/02/12 09:25:42;;;;;;;43.70;34.03;;;9.50;99.90;;;;;;5032065;28;20402;-69
2023/02/12 09:28:09;;;;;;;40.50;33.27;;;9.30;99.90;;;;;;5031798;28;21032;-70
2023/02/12 09:30:36;;;;;;;39.00;33.80;;;9.00;99.90;;;;;;5031414;28;20419;-69
2023/02/12 09:33:02;;;;;;;43.70;36.00;;;8.60;99.90;;;;;;5032338;28;20399;-69
2023/02/12 09:35:27;;;;;;;44.87;34.27;;;8.60;99.90;;;;;;5032525;28;20475;-69
2023/02/12 09:37:53;;;;;;;38.50;34.00;;;8.80;99.90;;;;;;5032089;28;20672;-69
2023/02/12 09:40:24;;;;;;;43.70;35.77;;;8.90;99.90;;;;;;5031953;28;20171;-69
2023/02/12 09:43:05;;;;;;;40.20;33.37;;;8.90;99.90;;;;;;5032286;28;20243;-69
2023/02/12 09:45:36;;;;;;;44.60;36.50;;;8.80;99.90;;;;;;5031617;28;20406;-67
2023/02/12 09:48:30;;;;;;;35.47;31.60;;;9.20;99.90;;;;;;5032099;28;20433;-68
2023/02/12 09:50:59;;;;;;;35.77;29.53;;;9.50;99.90;;;;;;5032172;28;20391;-68
2023/02/12 09:53:29;;;;;;;37.87;33.00;;;9.40;99.90;;;;;;5032220;28;20894;-68
2023/02/12 09:55:55;;;;;;;38.20;31.63;;;9.80;99.90;;;;;;5032317;28;20390;-68
2023/02/12 09:58:30;;;;;;;40.10;34.83;;;9.50;99.90;;;;;;5035458;28;20466;-68
2023/02/12 10:00:56;;;;;;;31.60;27.70;;;9.90;99.90;;;;;;5036019;28;20398;-68
2023/02/12 10:03:22;;;;;;;36.00;32.07;;;10.10;99.90;;;;;;5035795;28;20902;-68
2023/02/12 10:05:55;;;;;;;31.77;25.60;;;10.20;99.90;;;;;;5035866;28;20418;-68
2023/02/12 10:08:47;;;;;;;26.63;23.90;;;10.20;99.90;;;;;;5035669;28;20296;-69
2023/02/12 10:11:27;;;;;;;28.90;24.90;;;10.20;99.90;;;;;;5051927;28;20409;-68
2023/02/12 10:14:04;;;;;;;37.33;27.40;;;10.00;99.90;;;;;;5055462;28;20391;-69
2023/02/12 10:16:57;;;;;;;36.50;32.40;;;10.30;99.90;;;;;;5055565;28;20385;-69
2023/02/12 10:20:00;;;;;;;37.03;29.60;;;10.00;99.90;;;;;;5049976;28;20419;-69
2023/02/12 10:22:44;;;;;;;35.13;26.77;;;9.70;99.90;;;;;;5035708;28;20416;-69
2023/02/12 10:25:24;;;;;;;35.50;29.23;;;9.70;99.90;;;;;;5035823;28;20429;-69
2023/02/12 10:27:53;;;;;;;30.67;25.57;;;9.80;99.90;;;;;;5035651;28;21008;-69
2023/02/12 10:30:21;;;;;;;33.40;29.17;;;10.10;99.90;;;;;;5034037;28;20419;-69
2023/02/12 10:32:53;;;;;;;35.70;30.93;;;10.50;99.90;;;;;;5035363;28;20552;-69
2023/02/12 10:35:22;;;;;;;21.47;18.03;;;10.50;99.90;;;;;;5035365;28;20751;-69
2023/02/12 10:38:29;;;;;;;19.87;17.73;;;10.40;99.90;;;;;;5035576;28;20509;-69
2023/02/12 10:40:56;;;;;;;28.70;22.37;;;10.20;99.90;;;;;;4993761;28;20517;-69
2023/02/12 10:43:23;;;;;;;30.43;24.90;;;10.40;99.90;;;;;;4992788;28;20423;-69
2023/02/12 10:45:49;;;;;;;28.90;25.40;;;10.60;99.90;;;;;;4994331;28;20917;-69
2023/02/12 10:48:15;;;;;;;25.20;22.03;;;10.70;99.90;;;;;;5015193;28;20947;-69
2023/02/12 10:50:49;;;;;;;24.80;20.93;;;10.70;99.90;;;;;;5015388;28;20413;-69
2023/02/12 10:53:30;;;;;;;21.60;16.70;;;10.50;99.90;;;;;;5015831;28;20159;-69
2023/02/12 10:56:16;;;;;;;22.20;19.23;;;10.70;99.90;;;;;;5015161;28;20492;-69
2023/02/12 10:58:58;;;;;;;24.07;19.23;;;10.80;99.90;;;;;;5025657;28;20465;-69
2023/02/12 11:01:33;;;;;;;24.53;16.73;;;10.80;99.90;;;;;;5035810;28;20394;-69
2023/02/12 11:04:17;;;;;;;25.33;21.60;;;11.10;99.90;;;;;;5035345;28;20489;-69
2023/02/12 11:06:56;;;;;;;19.73;16.60;;;11.00;99.90;;;;;;5034497;28;20442;-69
2023/02/12 11:09:44;;;;;;;22.90;19.77;;;10.70;99.90;;;;;;5032616;28;20864;-70
2023/02/12 11:12:48;;;;;;;21.63;19.13;;;10.40;99.90;;;;;;5034536;28;20409;-69
2023/02/12 11:15:20;;;;;;;24.17;19.63;;;10.50;99.90;;;;;;4973809;28;20459;-69
2023/02/12 11:17:55;;;;;;;19.70;17.60;;;10.10;99.90;;;;;;4974012;28;20551;-69
2023/02/12 11:20:47;;;;;;;23.57;19.43;;;10.00;99.90;;;;;;4999947;28;20774;-69
2023/02/12 11:23:28;;;;;;;25.43;19.63;;;9.90;99.90;;;;;;5034751;28;20800;-69
2023/02/12 11:26:05;;;;;;;25.97;19.60;;;9.70;99.90;;;;;;5034652;28;20452;-69
2023/02/12 11:28:34;;;;;;;23.20;20.37;;;9.40;99.90;;;;;;5034026;28;20491;-69
2023/02/12 11:31:21;;;;;;;22.07;18.70;;;9.70;99.90;;;;;;5033250;28;20922;-70
2023/02/12 11:34:15;;;;;;;22.07;17.37;;;10.10;99.90;;;;;;5034143;28;20878;-70
2023/02/12 11:36:49;;;;;;;15.53;13.93;;;10.10;99.90;;;;;;5033946;28;20395;-70
2023/02/12 11:39:23;;;;;;;19.93;15.67;;;10.00;99.90;;;;;;5033759;28;20736;-69
2023/02/12 11:42:03;;;;;;;17.97;14.43;;;10.20;99.90;;;;;;5032382;28;20872;-69
2023/02/12 11:44:40;;;;;;;13.30;11.40;;;10.80;99.90;;;;;;5034111;28;20468;-69
2023/02/12 11:47:16;;;;;;;12.53;10.17;;;10.60;99.90;;;;;;5033802;28;20833;-69
2023/02/12 11:49:50;;;;;;;14.00;9.97;;;10.90;99.90;;;;;;5033667;28;20955;-70
2023/02/12 11:52:28;;;;;;;11.17;8.37;;;11.10;99.90;;;;;;5034043;28;20766;-69
2023/02/12 11:55:02;;;;;;;12.23;10.07;;;10.70;99.90;;;;;;5033379;28;20402;-70
2023/02/12 11:57:42;;;;;;;15.20;9.80;;;10.40;99.90;;;;;;5032699;28;20455;-69
2023/02/12 12:00:23;;;;;;;11.63;10.00;;;10.10;99.90;;;;;;5034166;28;20425;-69
2023/02/12 12:03:11;;;;;;;9.70;8.63;;;10.50;99.90;;;;;;5033648;28;20385;-69
2023/02/12 12:05:53;;;;;;;14.23;9.70;;;10.80;99.90;;;;;;5035698;28;20451;-69
2023/02/12 12:09:09;;;;;;;11.73;8.47;;;10.60;99.90;;;;;;5033617;28;20444;-69
2023/02/12 12:11:53;;;;;;;9.70;8.20;;;10.30;99.90;;;;;;5008293;28;20420;-69
2023/02/12 12:20:48;;;;;;;14.30;10.03;;;10.60;99.90;;;;;;5032666;28;20393;-69
2023/02/12 12:23:20;;;;;;;21.57;10.77;;;10.40;99.90;;;;;;5054377;23;20490;-71
2023/02/12 12:25:54;;;;;;;11.10;9.53;;;10.30;99.90;;;;;;5035370;28;20405;-70
2023/02/12 12:28:44;;;;;;;10.00;8.90;;;10.10;99.90;;;;;;5034862;28;20470;-69
2023/02/12 12:31:29;;;;;;;12.63;9.00;;;10.20;99.90;;;;;;5033237;28;20426;-71
2023/02/12 12:34:08;;;;;;;11.80;9.50;;;10.70;99.90;;;;;;5015224;28;20398;-70
2023/02/12 12:37:02;;;;;;;10.10;8.60;;;10.10;99.90;;;;;;5014847;28;20398;-72
2023/02/12 12:39:46;;;;;;;14.93;10.97;;;10.30;99.90;;;;;;5014711;28;20391;-70
2023/02/12 12:42:46;;;;;;;10.77;8.83;;;10.50;99.90;;;;;;5014204;28;20430;-70
2023/02/12 12:45:58;;;;;;;11.80;8.67;;;10.50;99.90;;;;;;5028367;28;20497;-69
2023/02/12 12:48:36;;;;;;;9.23;8.30;;;10.70;99.90;;;;;;5013826;28;20400;-70
2023/02/12 12:51:29;;;;;;;10.57;8.53;;;10.70;99.90;;;;;;5014085;28;20383;-70
2023/02/12 12:54:04;;;;;;;9.07;7.80;;;10.90;99.90;;;;;;5014274;28;20410;-69
2023/02/12 12:56:43;;;;;;;8.87;7.97;;;10.90;99.90;;;;;;5013846;28;20408;-70
2023/02/12 12:59:27;;;;;;;9.13;7.60;;;10.70;99.90;;;;;;5013760;28;20490;-70
2023/02/12 13:02:30;;;;;;;14.20;8.20;;;10.50;99.90;;;;;;5013440;28;20464;-69
2023/02/12 13:05:17;;;;;;;9.83;8.47;;;10.70;99.90;;;;;;5013718;28;20406;-69
2023/02/12 13:08:22;;;;;;;8.10;7.20;;;11.00;99.90;;;;;;5013345;28;20436;-70
2023/02/12 13:10:55;;;;;;;8.47;7.60;;;11.70;99.90;;;;;;5013992;28;20397;-70